createdAt,value
2019-02-26T00:01:30.824Z,23.8
2019-02-26T00:02:33.594Z,23.8
2019-02-26T00:03:36.450Z,23.8
2019-02-26T00:04:38.911Z,23.8
2019-02-26T00:05:41.352Z,23.8
2019-02-26T00:10:04.591Z,23.8
2019-02-26T00:11:11.081Z,23.8
2019-02-26T00:12:13.247Z,23.8
2019-02-26T00:13:15.386Z,23.8
2019-02-26T00:14:22.486Z,23.8
2019-02-26T00:15:27.145Z,23.8
2019-02-26T00:18:43.234Z,23.8
2019-02-26T00:19:45.664Z,23.8
2019-02-26T00:20:48.103Z,23.8
2019-02-26T00:24:04.857Z,23.8
2019-02-26T00:26:22.868Z,23.8
2019-02-26T00:28:30.280Z,23.8
2019-02-26T00:29:32.917Z,23.8
2019-02-26T00:31:40.063Z,23.8
2019-02-26T00:32:42.482Z,23.8
2019-02-26T00:33:44.638Z,23.8
2019-02-26T00:34:47.081Z,23.9
2019-02-26T00:35:51.175Z,23.9
2019-02-26T00:36:53.593Z,23.9
2019-02-26T00:37:56.789Z,23.9
2019-02-26T00:40:12.105Z,23.9
2019-02-26T00:42:28.751Z,23.9
2019-02-26T00:43:37.335Z,23.9
2019-02-26T00:44:39.763Z,23.9
2019-02-26T00:45:41.920Z,23.9
2019-02-26T00:46:44.345Z,23.9
2019-02-26T00:47:47.248Z,23.9
2019-02-26T00:48:49.678Z,23.9
2019-02-26T00:53:11.128Z,24
2019-02-26T00:54:13.561Z,24
2019-02-26T00:55:15.728Z,24
2019-02-26T00:56:18.167Z,24
2019-02-26T00:57:20.328Z,24
2019-02-26T00:58:22.477Z,24
2019-02-26T00:59:24.632Z,24
2019-02-26T01:01:31.759Z,24
2019-02-26T01:02:33.951Z,24
2019-02-26T01:03:36.107Z,24.1
2019-02-26T01:04:44.469Z,24.1
2019-02-26T01:05:50.868Z,24.1
2019-02-26T01:06:53.011Z,24.1
2019-02-26T01:07:55.468Z,24.2
2019-02-26T01:10:05.112Z,24.2
2019-02-26T01:11:09.061Z,24.2
2019-02-26T01:13:16.477Z,24.2
2019-02-26T01:14:24.678Z,24.3
2019-02-26T01:15:27.157Z,24.3
2019-02-26T01:16:29.310Z,24.3
2019-02-26T01:18:38.029Z,24.3
2019-02-26T01:21:50.410Z,24.3
2019-02-26T01:22:52.543Z,24.3
2019-02-26T01:23:56.511Z,24.3
2019-02-26T01:25:03.018Z,24.3
2019-02-26T01:26:04.908Z,24.3
2019-02-26T01:27:07.347Z,24.3
2019-02-26T01:28:09.780Z,24.3
2019-02-26T01:32:33.430Z,24.4
2019-02-26T01:33:35.597Z,24.4
2019-02-26T01:35:44.926Z,24.4
2019-02-26T01:38:57.044Z,24.4
2019-02-26T01:39:59.499Z,24.4
2019-02-26T01:41:01.636Z,24.4
2019-02-26T01:42:04.068Z,24.4
2019-02-26T01:43:06.625Z,24.4
2019-02-26T01:44:09.826Z,24.4
2019-02-26T01:45:11.945Z,24.4
2019-02-26T01:48:24.068Z,24.4
2019-02-26T01:50:35.627Z,24.4
2019-02-26T01:53:54.667Z,24.4
2019-02-26T01:58:15.775Z,24.4
2019-02-26T02:01:27.861Z,24.4
2019-02-26T02:02:31.018Z,24.4
2019-02-26T02:03:33.616Z,24.4
2019-02-26T02:05:40.747Z,24.4
2019-02-26T02:06:46.865Z,24.5
2019-02-26T02:12:11.791Z,24.4
2019-02-26T02:13:13.949Z,24.4
2019-02-26T02:14:17.518Z,24.4
2019-02-26T02:18:36.328Z,24.5
2019-02-26T02:19:38.487Z,24.5
2019-02-26T02:20:40.367Z,24.5
2019-02-26T02:21:42.799Z,24.5
2019-02-26T02:22:45.522Z,24.5
2019-02-26T02:24:56.677Z,24.5
2019-02-26T02:27:04.098Z,24.5
2019-02-26T02:28:06.528Z,24.5
2019-02-26T02:29:12.595Z,24.5
2019-02-26T02:35:39.739Z,24.5
2019-02-26T02:36:42.169Z,24.5
2019-02-26T02:37:44.598Z,24.5
2019-02-26T02:38:47.018Z,24.5
2019-02-26T02:39:49.449Z,24.5
2019-02-26T02:41:56.596Z,24.4
2019-02-26T02:44:04.466Z,24.5
2019-02-26T02:46:11.921Z,24.5
2019-02-26T02:47:14.077Z,24.5
2019-02-26T02:48:16.500Z,24.5
2019-02-26T02:49:19.007Z,24.5
2019-02-26T02:50:20.892Z,24.5
2019-02-26T02:51:25.507Z,24.5
2019-02-26T02:53:34.233Z,24.5
2019-02-26T02:56:47.111Z,24.5
2019-02-26T02:58:54.242Z,24.5
2019-02-26T03:01:03.659Z,24.5
2019-02-26T03:02:05.792Z,24.5
2019-02-26T03:03:07.947Z,24.5
2019-02-26T03:04:10.116Z,24.5
2019-02-26T03:05:16.257Z,24.5
2019-02-26T03:06:18.418Z,24.5
2019-02-26T03:08:27.826Z,24.5
2019-02-26T03:16:02.743Z,24.6
2019-02-26T03:20:24.501Z,24.6
2019-02-26T03:21:31.695Z,24.6
2019-02-26T03:24:44.087Z,24.5
2019-02-26T03:25:52.312Z,24.5
2019-02-26T03:26:56.329Z,24.5
2019-02-26T03:27:58.791Z,24.5
2019-02-26T03:29:01.233Z,24.5
2019-02-26T03:30:03.669Z,24.6
2019-02-26T03:31:06.099Z,24.6
2019-02-26T03:32:08.569Z,24.6
2019-02-26T03:33:11.013Z,24.6
2019-02-26T03:36:23.412Z,24.5
2019-02-26T03:37:31.302Z,24.5
2019-02-26T03:38:35.668Z,24.5
2019-02-26T03:39:38.101Z,24.5
2019-02-26T03:40:40.526Z,24.5
2019-02-26T03:42:47.929Z,24.5
2019-02-26T03:43:50.349Z,24.4
2019-02-26T03:44:52.778Z,24.4
2019-02-26T03:45:55.207Z,24.4
2019-02-26T03:46:57.633Z,24.4
2019-02-26T03:47:59.781Z,24.5
2019-02-26T03:51:11.610Z,24.5
2019-02-26T03:53:19.016Z,24.5
2019-02-26T03:54:21.450Z,24.5
2019-02-26T03:55:23.888Z,24.5
2019-02-26T03:56:26.070Z,24.5
2019-02-26T03:57:28.502Z,24.5
2019-02-26T03:58:30.921Z,24.5
2019-02-26T03:59:33.266Z,24.5
2019-02-26T04:01:40.380Z,24.5
2019-02-26T04:03:47.516Z,24.5
2019-02-26T04:08:05.550Z,24.4
2019-02-26T04:10:12.137Z,24.4
2019-02-26T04:12:21.819Z,24.3
2019-02-26T04:13:23.683Z,24.3
2019-02-26T04:17:43.247Z,24.2
2019-02-26T04:18:45.682Z,24.2
2019-02-26T04:19:52.629Z,24.2
2019-02-26T04:22:00.250Z,24.2
2019-02-26T04:23:02.686Z,24.2
2019-02-26T04:25:10.430Z,24.2
2019-02-26T04:27:17.600Z,24.2
2019-02-26T04:28:20.028Z,24.1
2019-02-26T04:29:22.478Z,24.1
2019-02-26T04:30:24.931Z,24.1
2019-02-26T04:31:27.060Z,24.1
2019-02-26T04:32:29.224Z,24.1
2019-02-26T04:34:39.260Z,24.1
2019-02-26T04:36:49.240Z,24.1
2019-02-26T04:38:56.695Z,24.1
2019-02-26T04:43:14.153Z,24.1
2019-02-26T04:45:22.108Z,24.1
2019-02-26T04:48:35.342Z,24
2019-02-26T04:52:52.764Z,24
2019-02-26T04:54:02.662Z,24
2019-02-26T04:55:04.822Z,24
2019-02-26T04:57:12.236Z,24
2019-02-26T04:59:19.639Z,24
2019-02-26T05:00:23.483Z,24
2019-02-26T05:01:30.090Z,24
2019-02-26T05:02:32.516Z,24
2019-02-26T05:03:34.658Z,24
2019-02-26T05:05:43.888Z,24
2019-02-26T05:06:46.059Z,24
2019-02-26T05:11:03.638Z,24
2019-02-26T05:12:05.808Z,24
2019-02-26T05:21:47.811Z,23.9
2019-02-26T05:25:00.739Z,23.9
2019-02-26T05:29:18.108Z,23.9
2019-02-26T05:31:25.522Z,23.9
2019-02-26T05:33:33.829Z,23.9
2019-02-26T05:36:48.512Z,23.9
2019-02-26T05:37:50.666Z,23.9
2019-02-26T05:39:58.085Z,23.9
2019-02-26T05:41:00.506Z,23.9
2019-02-26T05:43:07.917Z,23.9
2019-02-26T05:44:11.757Z,23.9
2019-02-26T05:45:14.201Z,23.9
2019-02-26T05:48:28.361Z,23.9
2019-02-26T05:51:40.770Z,23.9
2019-02-26T05:52:42.930Z,23.9
2019-02-26T05:53:45.352Z,23.9
2019-02-26T05:54:47.792Z,23.9
2019-02-26T05:56:57.401Z,23.9
2019-02-26T05:57:59.838Z,23.9
2019-02-26T06:03:24.685Z,23.9
2019-02-26T06:04:27.116Z,23.9
2019-02-26T06:05:29.286Z,23.9
2019-02-26T06:06:31.722Z,23.9
2019-02-26T06:10:49.332Z,23.9
2019-02-26T06:11:51.495Z,23.9
2019-02-26T06:12:53.927Z,23.9
2019-02-26T06:18:15.991Z,23.8
2019-02-26T06:19:19.312Z,23.9
2019-02-26T06:20:26.076Z,23.9
2019-02-26T06:21:29.684Z,23.9
2019-02-26T06:22:35.075Z,23.9
2019-02-26T06:24:42.209Z,23.9
2019-02-26T06:25:44.386Z,23.9
2019-02-26T06:26:46.366Z,23.9
2019-02-26T06:27:48.519Z,23.9
2019-02-26T06:28:53.442Z,23.9
2019-02-26T06:31:00.869Z,23.9
2019-02-26T06:35:20.790Z,23.9
2019-02-26T06:36:28.190Z,23.9
2019-02-26T06:38:38.197Z,23.8
2019-02-26T06:39:40.373Z,23.8
2019-02-26T06:41:51.716Z,23.8
2019-02-26T06:42:53.865Z,23.8
2019-02-26T06:43:56.312Z,23.8
2019-02-26T06:44:58.445Z,23.8
2019-02-26T06:47:09.388Z,23.8
2019-02-26T06:50:21.767Z,23.8
2019-02-26T06:53:33.870Z,23.8
2019-02-26T06:54:36.018Z,23.8
2019-02-26T06:55:38.448Z,23.8
2019-02-26T06:58:50.593Z,23.8
2019-02-26T07:00:58.029Z,23.8
2019-02-26T07:02:00.184Z,23.8
2019-02-26T07:03:03.700Z,23.8
2019-02-26T07:04:05.836Z,23.8
2019-02-26T07:05:08.263Z,23.8
2019-02-26T07:06:10.417Z,23.8
2019-02-26T07:09:23.287Z,23.8
2019-02-26T07:15:52.830Z,23.8
2019-02-26T07:20:09.958Z,23.8
2019-02-26T07:21:12.402Z,23.8
2019-02-26T07:22:18.819Z,23.8
2019-02-26T07:23:20.989Z,23.8
2019-02-26T07:24:27.608Z,23.8
2019-02-26T07:25:34.293Z,23.8
2019-02-26T07:27:42.750Z,23.8
2019-02-26T07:28:50.911Z,23.8
2019-02-26T07:29:53.143Z,23.8
2019-02-26T07:30:55.017Z,23.8
2019-02-26T07:31:59.454Z,23.8
2019-02-26T07:33:07.626Z,23.8
2019-02-26T07:34:11.768Z,23.8
2019-02-26T07:37:23.881Z,23.8
2019-02-26T07:38:28.564Z,23.8
2019-02-26T07:39:31.005Z,23.7
2019-02-26T07:41:39.951Z,23.7
2019-02-26T07:42:49.817Z,23.7
2019-02-26T07:43:55.319Z,23.7
2019-02-26T07:44:57.756Z,23.7
2019-02-26T07:45:59.901Z,23.7
2019-02-26T07:48:06.478Z,23.7
2019-02-26T07:49:08.366Z,23.7
2019-02-26T07:51:15.508Z,23.7
2019-02-26T07:52:17.669Z,23.7
2019-02-26T07:54:24.505Z,23.7
2019-02-26T07:55:32.685Z,23.7
2019-02-26T07:56:36.491Z,23.7
2019-02-26T07:57:42.919Z,23.7
2019-02-26T07:58:49.269Z,23.7
2019-02-26T07:59:51.711Z,23.7
2019-02-26T08:00:54.085Z,23.7
2019-02-26T08:01:56.226Z,23.7
2019-02-26T08:03:04.480Z,23.7
2019-02-26T08:06:20.236Z,23.7
2019-02-26T08:08:27.088Z,23.7
2019-02-26T08:09:33.851Z,23.7
2019-02-26T08:12:48.370Z,23.7
2019-02-26T08:13:56.645Z,23.7
2019-02-26T08:16:06.245Z,23.7
2019-02-26T08:17:08.411Z,23.7
2019-02-26T08:18:10.552Z,23.7
2019-02-26T08:19:12.977Z,23.7
2019-02-26T08:20:15.934Z,23.7
2019-02-26T08:22:24.680Z,23.7
2019-02-26T08:23:30.899Z,23.7
2019-02-26T08:24:33.550Z,23.7
2019-02-26T08:25:35.976Z,23.7
2019-02-26T08:27:43.131Z,23.7
2019-02-26T08:28:48.757Z,23.8
2019-02-26T08:32:02.986Z,23.8
2019-02-26T08:36:20.116Z,23.8
2019-02-26T08:37:22.547Z,23.8
2019-02-26T08:38:29.208Z,23.8
2019-02-26T08:39:30.661Z,23.8
2019-02-26T08:40:32.815Z,23.8
2019-02-26T08:41:34.979Z,23.8
2019-02-26T08:42:37.410Z,23.8
2019-02-26T08:45:49.239Z,23.8
2019-02-26T08:46:51.669Z,23.8
2019-02-26T08:47:53.820Z,23.8
2019-02-26T08:48:56.257Z,23.8
2019-02-26T08:52:10.614Z,23.8
2019-02-26T08:53:12.816Z,23.8
2019-02-26T08:57:29.889Z,23.8
2019-02-26T08:58:32.048Z,23.8
2019-02-26T08:59:34.465Z,23.8
2019-02-26T09:00:36.899Z,23.8
2019-02-26T09:01:38.499Z,23.8
2019-02-26T09:03:48.031Z,23.8
2019-02-26T09:04:59.115Z,23.8
2019-02-26T09:07:18.536Z,23.8
2019-02-26T09:08:27.832Z,23.8
2019-02-26T09:09:34.251Z,23.8
2019-02-26T09:10:41.261Z,23.8
2019-02-26T09:11:45.919Z,23.8
2019-02-26T09:15:00.346Z,23.8
2019-02-26T09:17:07.757Z,23.8
2019-02-26T09:18:10.193Z,23.8
2019-02-26T09:19:12.071Z,23.8
2019-02-26T09:20:15.719Z,23.8
2019-02-26T09:23:33.396Z,23.8
2019-02-26T09:24:35.555Z,23.8
2019-02-26T09:25:38.204Z,23.8
2019-02-26T09:26:40.725Z,23.8
2019-02-26T09:27:44.088Z,23.8
2019-02-26T09:28:52.365Z,23.8
2019-02-26T09:29:56.449Z,23.8
2019-02-26T09:33:11.524Z,23.8
2019-02-26T09:34:13.681Z,23.8
2019-02-26T09:37:25.780Z,23.8
2019-02-26T09:38:27.945Z,23.8
2019-02-26T09:39:34.543Z,23.8
2019-02-26T09:40:38.911Z,23.8
2019-02-26T09:43:51.309Z,23.8
2019-02-26T09:45:58.705Z,23.8
2019-02-26T09:48:06.117Z,23.8
2019-02-26T09:50:17.623Z,23.8
2019-02-26T09:51:24.536Z,23.8
2019-02-26T09:53:31.665Z,23.8
2019-02-26T09:55:39.090Z,23.8
2019-02-26T09:56:41.212Z,23.8
2019-02-26T09:57:43.642Z,23.8
2019-02-26T10:00:58.649Z,23.8
2019-02-26T10:02:06.015Z,23.8
2019-02-26T10:04:13.283Z,23.8
2019-02-26T10:06:24.068Z,23.8
2019-02-26T10:08:31.680Z,23.8
2019-02-26T10:10:40.578Z,23.8
2019-02-26T10:12:47.990Z,23.8
2019-02-26T10:13:54.889Z,23.8
2019-02-26T10:17:09.048Z,23.8
2019-02-26T10:18:15.580Z,23.8
2019-02-26T10:21:27.702Z,23.8
2019-02-26T10:23:35.101Z,23.8
2019-02-26T10:25:42.527Z,23.8
2019-02-26T10:26:44.963Z,23.8
2019-02-26T10:27:48.851Z,23.8
2019-02-26T10:29:56.266Z,23.8
2019-02-26T10:32:03.102Z,23.8
2019-02-26T10:33:05.258Z,23.8
2019-02-26T10:36:19.398Z,23.8
2019-02-26T10:37:21.830Z,23.8
2019-02-26T10:39:29.391Z,23.8
2019-02-26T10:42:43.467Z,23.8
2019-02-26T10:43:48.323Z,23.8
2019-02-26T10:44:50.759Z,23.8
2019-02-26T10:48:03.152Z,23.8
2019-02-26T10:49:05.575Z,23.8
2019-02-26T10:50:09.877Z,23.8
2019-02-26T10:51:18.125Z,23.8
2019-02-26T10:53:31.130Z,23.8
2019-02-26T10:57:48.850Z,23.8
2019-02-26T11:02:06.229Z,23.8
2019-02-26T11:04:16.309Z,23.8
2019-02-26T11:06:23.534Z,23.8
2019-02-26T11:09:35.380Z,23.8
2019-02-26T11:11:43.383Z,23.8
2019-02-26T11:16:04.103Z,23.8
2019-02-26T11:17:06.547Z,23.8
2019-02-26T11:19:13.955Z,23.8
2019-02-26T11:20:16.370Z,23.8
2019-02-26T11:21:25.170Z,23.8
2019-02-26T11:22:29.050Z,23.8
2019-02-26T11:24:37.316Z,23.8
2019-02-26T11:25:39.205Z,23.8
2019-02-26T11:28:51.792Z,23.8
2019-02-26T11:31:01.491Z,23.8
2019-02-26T11:34:14.371Z,23.8
2019-02-26T11:36:21.762Z,23.8
2019-02-26T11:38:31.269Z,23.8
2019-02-26T11:39:37.686Z,23.8
2019-02-26T11:40:40.113Z,23.8
2019-02-26T11:41:42.268Z,23.8
2019-02-26T11:43:49.393Z,23.8
2019-02-26T11:44:51.270Z,23.8
2019-02-26T11:45:53.185Z,23.8
2019-02-26T11:46:58.238Z,23.8
2019-02-26T11:49:05.739Z,23.8
2019-02-26T11:50:12.258Z,23.8
2019-02-26T11:52:21.188Z,23.8
2019-02-26T11:53:23.618Z,23.8
2019-02-26T11:54:25.782Z,23.8
2019-02-26T11:58:47.622Z,23.8
2019-02-26T11:59:49.785Z,23.8
2019-02-26T12:00:52.095Z,23.8
2019-02-26T12:03:00.751Z,23.8
2019-02-26T12:05:11.296Z,23.8
2019-02-26T12:06:13.732Z,23.8
2019-02-26T12:07:15.880Z,23.8
2019-02-26T12:09:25.902Z,23.8
2019-02-26T12:11:33.321Z,23.8
2019-02-26T12:12:37.904Z,23.8
2019-02-26T12:15:51.499Z,23.8
2019-02-26T12:16:53.920Z,23.8
2019-02-26T12:20:08.231Z,23.8
2019-02-26T12:21:13.430Z,23.8
2019-02-26T12:22:15.591Z,23.8
2019-02-26T12:25:34.855Z,23.8
2019-02-26T12:26:37.286Z,23.8
2019-02-26T12:28:44.808Z,23.8
2019-02-26T12:30:51.944Z,23.8
2019-02-26T12:32:59.344Z,23.8
2019-02-26T12:34:01.489Z,23.8
2019-02-26T12:36:11.100Z,23.8
2019-02-26T12:37:13.530Z,23.8
2019-02-26T12:40:26.228Z,23.8
2019-02-26T12:41:28.650Z,23.8
2019-02-26T12:42:31.125Z,23.8
2019-02-26T12:45:45.442Z,23.8
2019-02-26T12:48:57.550Z,23.8
2019-02-26T12:51:08.297Z,23.8
2019-02-26T12:52:10.723Z,23.8
2019-02-26T12:54:17.842Z,23.8
2019-02-26T12:57:31.844Z,23.8
2019-02-26T12:58:34.011Z,23.8
2019-02-26T12:59:36.440Z,23.8
2019-02-26T13:02:52.941Z,23.8
2019-02-26T13:03:56.369Z,23.8
2019-02-26T13:04:58.530Z,23.8
2019-02-26T13:06:00.966Z,23.8
2019-02-26T13:09:17.863Z,23.8
2019-02-26T13:10:20.290Z,23.8
2019-02-26T13:13:32.369Z,23.8
2019-02-26T13:14:34.795Z,23.8
2019-02-26T13:15:36.664Z,23.8
2019-02-26T13:16:38.814Z,23.8
2019-02-26T13:17:44.293Z,23.8
2019-02-26T13:26:24.987Z,23.8
2019-02-26T13:27:27.141Z,23.8
2019-02-26T13:28:30.714Z,23.8
2019-02-26T13:29:32.877Z,23.8
2019-02-26T13:30:35.447Z,23.8
2019-02-26T13:33:47.491Z,23.9
2019-02-26T13:37:00.028Z,23.8
2019-02-26T13:38:02.547Z,23.8
2019-02-26T13:39:05.745Z,23.8
2019-02-26T13:40:07.926Z,23.9
2019-02-26T13:43:19.765Z,23.8
2019-02-26T13:44:21.657Z,23.9
2019-02-26T13:45:24.082Z,23.8
2019-02-26T13:46:26.234Z,23.9
2019-02-26T13:47:28.683Z,23.9
2019-02-26T13:48:30.852Z,23.9
2019-02-26T13:49:32.744Z,23.9
2019-02-26T13:50:35.175Z,23.9
2019-02-26T13:51:37.618Z,23.8
2019-02-26T13:52:40.050Z,23.9
2019-02-26T13:53:42.186Z,23.9
2019-02-26T13:54:44.354Z,23.9
2019-02-26T13:55:46.221Z,23.9
2019-02-26T13:56:48.648Z,23.9
2019-02-26T13:57:50.826Z,23.8
2019-02-26T13:58:52.992Z,23.8
2019-02-26T13:59:55.155Z,23.9
2019-02-26T14:00:57.328Z,23.9
2019-02-26T14:01:59.757Z,23.8
2019-02-26T14:03:04.048Z,23.8
2019-02-26T14:04:06.912Z,23.8
2019-02-26T14:05:09.908Z,23.8
2019-02-26T14:06:12.343Z,23.8
2019-02-26T14:07:14.882Z,23.8
2019-02-26T14:08:17.324Z,23.8
2019-02-26T14:09:19.749Z,23.8
2019-02-26T14:10:22.172Z,23.8
2019-02-26T14:11:24.596Z,23.8
2019-02-26T14:12:26.743Z,23.8
2019-02-26T14:13:29.164Z,23.8
2019-02-26T14:14:31.320Z,23.8
2019-02-26T14:15:33.477Z,23.8
2019-02-26T14:16:36.267Z,23.8
2019-02-26T14:17:38.990Z,23.8
2019-02-26T14:18:41.401Z,23.8
2019-02-26T14:19:43.290Z,23.8
2019-02-26T14:20:46.612Z,23.8
2019-02-26T14:21:49.046Z,23.8
2019-02-26T14:22:51.198Z,23.8
2019-02-26T14:23:53.619Z,23.8
2019-02-26T14:24:55.782Z,23.8
2019-02-26T14:25:57.932Z,23.8
2019-02-26T14:26:59.522Z,23.8
2019-02-26T14:28:01.947Z,23.8
2019-02-26T14:29:04.378Z,23.8
2019-02-26T14:30:06.533Z,23.8
2019-02-26T14:31:09.284Z,23.8
2019-02-26T14:32:11.305Z,23.8
2019-02-26T14:33:14.177Z,23.8
2019-02-26T14:34:16.612Z,23.8
2019-02-26T14:35:19.049Z,23.8
2019-02-26T14:36:21.211Z,23.8
2019-02-26T14:37:23.647Z,23.8
2019-02-26T14:38:26.090Z,23.8
2019-02-26T14:39:28.259Z,23.8
2019-02-26T14:40:30.690Z,23.9
2019-02-26T14:41:33.116Z,23.9
2019-02-26T14:42:35.260Z,23.9
2019-02-26T14:43:37.692Z,23.9
2019-02-26T14:44:39.842Z,23.9
2019-02-26T14:45:42.775Z,23.9
2019-02-26T14:46:45.758Z,23.9
2019-02-26T14:47:47.922Z,23.9
2019-02-26T14:48:50.367Z,23.9
2019-02-26T14:49:52.250Z,23.9
2019-02-26T14:50:54.688Z,23.9
2019-02-26T14:51:57.114Z,23.9
2019-02-26T14:52:59.293Z,23.9
2019-02-26T14:54:01.759Z,23.9
2019-02-26T14:55:04.543Z,23.9
2019-02-26T14:56:06.976Z,23.9
2019-02-26T14:57:09.405Z,23.9
2019-02-26T14:58:11.554Z,23.9
2019-02-26T14:59:14.333Z,23.9
2019-02-26T15:00:17.129Z,23.9
2019-02-26T15:01:19.841Z,23.9
2019-02-26T15:02:22.267Z,23.9
2019-02-26T15:03:24.427Z,23.9
2019-02-26T15:04:26.868Z,23.9
2019-02-26T15:05:29.038Z,23.9
2019-02-26T15:06:31.197Z,23.9
2019-02-26T15:07:33.355Z,23.9
2019-02-26T15:08:35.220Z,23.9
2019-02-26T15:09:37.091Z,23.9
2019-02-26T15:10:39.523Z,23.9
2019-02-26T15:11:41.976Z,23.9
2019-02-26T15:12:44.806Z,23.9
2019-02-26T15:13:47.498Z,23.9
2019-02-26T15:14:50.402Z,23.9
2019-02-26T15:15:52.597Z,23.9
2019-02-26T15:16:55.068Z,23.9
2019-02-26T15:17:57.499Z,23.9
2019-02-26T15:18:59.648Z,23.9
2019-02-26T15:20:01.533Z,23.8
2019-02-26T15:21:03.740Z,23.9
2019-02-26T15:22:06.174Z,23.9
2019-02-26T15:23:08.631Z,23.9
2019-02-26T15:24:10.767Z,23.9
2019-02-26T15:25:13.201Z,23.9
2019-02-26T15:26:15.695Z,23.9
2019-02-26T15:27:18.401Z,23.9
2019-02-26T15:28:21.275Z,23.8
2019-02-26T15:29:23.435Z,23.9
2019-02-26T15:30:25.878Z,23.9
2019-02-26T15:31:28.003Z,23.9
2019-02-26T15:32:30.426Z,23.9
2019-02-26T15:33:32.598Z,23.9
2019-02-26T15:34:34.227Z,23.9
2019-02-26T15:35:36.663Z,23.9
2019-02-26T15:36:39.631Z,23.9
2019-02-26T15:37:41.797Z,23.9
2019-02-26T15:38:43.975Z,23.9
2019-02-26T15:39:46.600Z,23.9
2019-02-26T15:41:54.519Z,23.9
2019-02-26T15:42:57.169Z,23.9
2019-02-26T15:43:59.599Z,23.9
2019-02-26T15:45:01.511Z,23.9
2019-02-26T15:46:03.699Z,23.9
2019-02-26T15:47:06.119Z,23.9
2019-02-26T15:48:10.721Z,23.9
2019-02-26T15:49:13.150Z,23.9
2019-02-26T15:50:15.315Z,23.9
2019-02-26T15:52:23.268Z,23.9
2019-02-26T15:53:25.439Z,23.9
2019-02-26T15:54:28.372Z,23.9
2019-02-26T15:55:30.953Z,23.9
2019-02-26T15:56:33.226Z,23.9
2019-02-26T15:57:36.073Z,23.9
2019-02-26T15:58:38.524Z,23.9
2019-02-26T15:59:40.945Z,23.9
2019-02-26T16:00:43.378Z,23.9
2019-02-26T16:01:45.534Z,23.9
2019-02-26T16:02:47.392Z,23.9
2019-02-26T16:03:49.818Z,23.9
2019-02-26T16:04:51.709Z,23.9
2019-02-26T16:05:55.030Z,23.9
2019-02-26T16:06:56.622Z,23.9
2019-02-26T16:07:58.778Z,23.9
2019-02-26T16:09:01.527Z,23.9
2019-02-26T16:10:04.173Z,23.9
2019-02-26T16:11:07.143Z,23.8
2019-02-26T16:12:09.299Z,23.8
2019-02-26T16:13:11.720Z,23.9
2019-02-26T16:14:14.162Z,23.9
2019-02-26T16:15:16.294Z,23.9
2019-02-26T16:16:19.102Z,23.8
2019-02-26T16:17:20.990Z,23.9
2019-02-26T16:18:23.428Z,23.8
2019-02-26T16:19:25.320Z,23.8
2019-02-26T16:20:27.473Z,23.8
2019-02-26T16:21:29.638Z,23.8
2019-02-26T16:22:33.027Z,23.8
2019-02-26T16:23:35.481Z,23.8
2019-02-26T16:24:37.641Z,23.8
2019-02-26T16:25:40.552Z,23.8
2019-02-26T16:26:42.976Z,23.8
2019-02-26T16:27:45.410Z,23.8
2019-02-26T16:28:47.848Z,23.8
2019-02-26T16:29:49.744Z,23.8
2019-02-26T16:31:57.756Z,23.8
2019-02-26T16:32:59.696Z,23.8
2019-02-26T16:34:02.117Z,23.8
2019-02-26T16:35:04.269Z,23.8
2019-02-26T16:36:07.109Z,23.8
2019-02-26T16:37:09.143Z,23.8
2019-02-26T16:39:17.228Z,23.8
2019-02-26T16:40:19.380Z,23.8
2019-02-26T16:41:21.541Z,23.8
2019-02-26T16:42:23.982Z,23.8
2019-02-26T16:43:26.150Z,23.8
2019-02-26T16:44:28.333Z,23.8
2019-02-26T16:46:35.809Z,23.8
2019-02-26T16:47:38.256Z,23.8
2019-02-26T16:48:40.688Z,23.8
2019-02-26T16:49:42.844Z,23.8
2019-02-26T16:50:47.150Z,23.8
2019-02-26T16:51:49.787Z,23.8
2019-02-26T16:54:01.694Z,23.8
2019-02-26T16:55:08.621Z,23.8
2019-02-26T16:56:10.754Z,23.8
2019-02-26T16:57:12.653Z,23.8
2019-02-26T16:58:15.105Z,23.8
2019-02-26T16:59:17.528Z,23.8
2019-02-26T17:00:21.580Z,23.8
2019-02-26T17:01:23.738Z,23.8
2019-02-26T17:04:36.144Z,23.8
2019-02-26T17:05:42.728Z,23.8
2019-02-26T17:06:49.155Z,23.8
2019-02-26T17:07:55.572Z,23.8
2019-02-26T17:08:58.004Z,23.8
2019-02-26T17:10:00.734Z,23.8
2019-02-26T17:11:03.836Z,23.8
2019-02-26T17:12:06.331Z,23.8
2019-02-26T17:13:08.481Z,23.8
2019-02-26T17:14:10.638Z,23.8
2019-02-26T17:15:13.070Z,23.8
2019-02-26T17:16:15.540Z,23.8
2019-02-26T17:17:17.768Z,23.8
2019-02-26T17:18:20.214Z,23.8
2019-02-26T17:19:22.394Z,23.8
2019-02-26T17:20:26.872Z,23.8
2019-02-26T17:22:34.304Z,23.8
2019-02-26T17:23:37.010Z,23.8
2019-02-26T17:24:39.227Z,23.8
2019-02-26T17:25:41.817Z,23.8
2019-02-26T17:26:43.961Z,23.8
2019-02-26T17:27:46.395Z,23.8
2019-02-26T17:28:48.851Z,23.8
2019-02-26T17:29:51.279Z,23.8
2019-02-26T17:30:52.892Z,23.8
2019-02-26T17:31:59.305Z,23.8
2019-02-26T17:33:05.452Z,23.8
2019-02-26T17:34:07.044Z,23.8
2019-02-26T17:35:09.616Z,23.8
2019-02-26T17:36:12.148Z,23.8
2019-02-26T17:37:14.322Z,23.8
2019-02-26T17:40:27.422Z,23.8
2019-02-26T17:41:29.840Z,23.8
2019-02-26T17:42:32.262Z,23.8
2019-02-26T17:43:34.721Z,23.8
2019-02-26T17:44:37.213Z,23.8
2019-02-26T17:45:39.382Z,23.8
2019-02-26T17:46:41.826Z,23.8
2019-02-26T17:47:43.961Z,23.8
2019-02-26T17:48:46.403Z,23.8
2019-02-26T17:49:48.851Z,23.8
2019-02-26T17:50:51.010Z,23.8
2019-02-26T17:51:53.195Z,23.8
2019-02-26T17:52:55.837Z,23.8
2019-02-26T17:53:58.733Z,23.8
2019-02-26T17:55:09.149Z,23.8
2019-02-26T17:56:11.573Z,23.8
2019-02-26T17:57:14.016Z,23.8
2019-02-26T17:58:16.445Z,23.8
2019-02-26T17:59:18.874Z,23.8
2019-02-26T18:00:21.310Z,23.8
2019-02-26T18:01:23.739Z,23.8
2019-02-26T18:02:28.512Z,23.8
2019-02-26T18:03:30.948Z,23.8
2019-02-26T18:04:33.382Z,23.8
2019-02-26T18:06:40.812Z,23.8
2019-02-26T18:07:43.273Z,23.8
2019-02-26T18:08:45.817Z,23.8
2019-02-26T18:09:48.280Z,23.8
2019-02-26T18:10:51.867Z,23.8
2019-02-26T18:11:54.307Z,23.8
2019-02-26T18:12:56.984Z,23.8
2019-02-26T18:14:01.393Z,23.8
2019-02-26T18:15:03.545Z,23.8
2019-02-26T18:17:10.954Z,23.8
2019-02-26T18:18:13.113Z,23.8
2019-02-26T18:19:15.241Z,23.8
2019-02-26T18:20:17.386Z,23.8
2019-02-26T18:21:19.825Z,23.8
2019-02-26T18:22:23.212Z,23.8
2019-02-26T18:23:25.362Z,23.8
2019-02-26T18:24:27.257Z,23.8
2019-02-26T18:25:29.692Z,23.8
2019-02-26T18:26:32.152Z,23.8
2019-02-26T18:27:34.595Z,23.8
2019-02-26T18:28:37.853Z,23.8
2019-02-26T18:29:40.277Z,23.8
2019-02-26T18:30:42.768Z,23.8
2019-02-26T18:31:45.201Z,23.8
2019-02-26T18:33:52.619Z,23.9
2019-02-26T18:34:55.061Z,23.8
2019-02-26T18:35:59.280Z,23.8
2019-02-26T18:37:01.762Z,23.8
2019-02-26T18:38:04.211Z,23.9
2019-02-26T18:39:06.366Z,23.9
2019-02-26T18:40:08.536Z,23.8
2019-02-26T18:41:10.994Z,23.8
2019-02-26T18:42:13.432Z,23.8
2019-02-26T18:43:17.328Z,23.8
2019-02-26T18:46:29.191Z,23.8
2019-02-26T18:47:35.615Z,23.8
2019-02-26T18:48:38.059Z,23.8
2019-02-26T18:49:40.484Z,23.8
2019-02-26T18:50:42.912Z,23.8
2019-02-26T18:51:45.389Z,23.8
2019-02-26T18:52:47.840Z,23.8
2019-02-26T18:53:50.266Z,23.8
2019-02-26T18:55:57.703Z,23.8
2019-02-26T18:57:00.135Z,23.8
2019-02-26T18:58:02.296Z,23.8
2019-02-26T18:59:04.728Z,23.8
2019-02-26T19:00:06.908Z,23.8
2019-02-26T19:01:09.069Z,23.8
2019-02-26T19:02:11.499Z,23.8
2019-02-26T19:03:13.371Z,23.8
2019-02-26T19:04:17.713Z,23.8
2019-02-26T19:05:24.168Z,23.8
2019-02-26T19:10:46.808Z,23.8
2019-02-26T19:11:49.102Z,23.8
2019-02-26T19:12:51.552Z,23.8
2019-02-26T19:13:54.012Z,23.8
2019-02-26T19:14:56.164Z,23.8
2019-02-26T19:15:58.352Z,23.8
2019-02-26T19:17:00.822Z,23.8
2019-02-26T19:18:04.237Z,23.8
2019-02-26T19:21:16.412Z,23.8
2019-02-26T19:27:48.282Z,23.8
2019-02-26T19:32:15.399Z,23.8
2019-02-26T19:34:21.989Z,23.8
2019-02-26T19:35:24.433Z,23.8
2019-02-26T19:36:26.608Z,23.8
2019-02-26T19:37:28.796Z,23.8
2019-02-26T19:38:31.244Z,23.8
2019-02-26T19:39:35.163Z,23.8
2019-02-26T19:42:47.609Z,23.8
2019-02-26T19:43:54.520Z,23.8
2019-02-26T19:45:01.288Z,23.8
2019-02-26T19:46:03.172Z,23.8
2019-02-26T19:47:05.060Z,23.8
2019-02-26T19:48:07.504Z,23.8
2019-02-26T19:49:09.687Z,23.8
2019-02-26T19:50:15.270Z,23.8
2019-02-26T19:51:21.648Z,23.8
2019-02-26T19:52:23.664Z,23.8
2019-02-26T19:53:26.090Z,23.8
2019-02-26T19:54:28.286Z,23.8
2019-02-26T19:55:30.767Z,23.8
2019-02-26T19:56:33.210Z,23.8
2019-02-26T19:57:35.658Z,23.8
2019-02-26T20:00:52.608Z,23.8
2019-02-26T20:01:53.959Z,23.8
2019-02-26T20:02:59.864Z,23.8
2019-02-26T20:04:06.283Z,23.8
2019-02-26T20:06:13.982Z,23.8
2019-02-26T20:07:16.413Z,23.8
2019-02-26T20:08:18.866Z,23.8
2019-02-26T20:09:21.298Z,23.8
2019-02-26T20:10:23.767Z,23.8
2019-02-26T20:11:25.661Z,23.8
2019-02-26T20:12:30.148Z,23.8
2019-02-26T20:14:37.300Z,23.8
2019-02-26T20:15:39.773Z,23.8
2019-02-26T20:16:41.949Z,23.8
2019-02-26T20:18:50.965Z,23.8
2019-02-26T20:19:53.154Z,23.8
2019-02-26T20:20:55.609Z,23.8